createdAt,value
2023-02-07T00:00:55.411Z,1032.10
2023-02-07T00:01:56.369Z,1032.09
2023-02-07T00:02:57.294Z,1032.07
2023-02-07T00:03:58.148Z,1032.07
2023-02-07T00:04:59.036Z,1032.05
2023-02-07T00:05:59.937Z,1032.11
2023-02-07T00:07:00.820Z,1032.12
2023-02-07T00:08:01.705Z,1032.14
2023-02-07T00:09:02.602Z,1032.17
2023-02-07T00:10:03.473Z,1032.22
2023-02-07T00:11:04.361Z,1032.24
2023-02-07T00:12:05.230Z,1032.24
2023-02-07T00:13:06.512Z,1032.25
2023-02-07T00:14:06.849Z,1032.21
2023-02-07T00:15:07.761Z,1032.18
2023-02-07T00:16:08.657Z,1032.19
2023-02-07T00:17:09.517Z,1032.19
2023-02-07T00:18:10.398Z,1032.20
2023-02-07T00:19:11.288Z,1032.21
2023-02-07T00:20:12.172Z,1032.25
2023-02-07T00:21:13.054Z,1032.36
2023-02-07T00:22:13.941Z,1032.38
2023-02-07T00:23:14.821Z,1032.38
2023-02-07T00:24:15.752Z,1032.34
2023-02-07T00:25:16.598Z,1032.36
2023-02-07T00:26:17.493Z,1032.35
2023-02-07T00:27:18.373Z,1032.36
2023-02-07T00:28:19.328Z,1032.37
2023-02-07T00:29:19.760Z,1032.39
2023-02-07T00:30:20.701Z,1032.39
2023-02-07T00:31:21.625Z,1032.38
2023-02-07T00:32:22.030Z,1032.44
2023-02-07T00:33:22.916Z,1032.45
2023-02-07T00:34:23.811Z,1032.42
2023-02-07T00:35:24.691Z,1032.43
2023-02-07T00:36:25.584Z,1032.42
2023-02-07T00:37:26.461Z,1032.37
2023-02-07T00:38:27.351Z,1032.36
2023-02-07T00:39:28.239Z,1032.32
2023-02-07T00:40:29.113Z,1032.29
2023-02-07T00:41:30.006Z,1032.27
2023-02-07T00:42:30.881Z,1032.23
2023-02-07T00:43:31.775Z,1032.21
2023-02-07T00:44:32.671Z,1032.19
2023-02-07T00:45:33.564Z,1032.16
2023-02-07T00:46:34.440Z,1032.17
2023-02-07T00:47:35.311Z,1032.16
2023-02-07T00:48:36.202Z,1032.16
2023-02-07T00:49:37.101Z,1032.16
2023-02-07T00:50:37.985Z,1032.14
2023-02-07T00:51:38.873Z,1032.11
2023-02-07T00:52:39.758Z,1032.10
2023-02-07T00:53:40.665Z,1032.12
2023-02-07T00:54:41.536Z,1032.13
2023-02-07T00:55:42.421Z,1032.16
2023-02-07T00:56:43.313Z,1032.17
2023-02-07T00:57:44.193Z,1032.21
2023-02-07T00:58:45.083Z,1032.23
2023-02-07T00:59:45.978Z,1032.23
2023-02-07T01:00:46.895Z,1032.24
2023-02-07T01:01:47.744Z,1032.25
2023-02-07T01:02:48.633Z,1032.27
2023-02-07T01:03:49.530Z,1032.25
2023-02-07T01:04:50.425Z,1032.24
2023-02-07T01:05:51.304Z,1032.22
2023-02-07T01:06:52.189Z,1032.20
2023-02-07T01:07:53.065Z,1032.17
2023-02-07T01:08:53.953Z,1032.15
2023-02-07T01:09:54.848Z,1032.14
2023-02-07T01:10:55.733Z,1032.15
2023-02-07T01:11:56.615Z,1032.13
2023-02-07T01:12:57.500Z,1032.14
2023-02-07T01:13:58.398Z,1032.11
2023-02-07T01:14:59.276Z,1032.07
2023-02-07T01:16:00.242Z,1032.04
2023-02-07T01:17:01.102Z,1032.03
2023-02-07T01:18:01.981Z,1032.06
2023-02-07T01:19:02.849Z,1032.08
2023-02-07T01:20:03.746Z,1032.13
2023-02-07T01:21:04.630Z,1032.15
2023-02-07T01:22:05.512Z,1032.19
2023-02-07T01:23:06.403Z,1032.18
2023-02-07T01:24:07.293Z,1032.21
2023-02-07T01:25:08.174Z,1032.19
2023-02-07T01:26:09.057Z,1032.21
2023-02-07T01:27:09.951Z,1032.20
2023-02-07T01:28:10.907Z,1032.21
2023-02-07T01:29:11.733Z,1032.21
2023-02-07T01:30:12.631Z,1032.20
2023-02-07T01:31:13.630Z,1032.21
2023-02-07T01:32:14.024Z,1032.19
2023-02-07T01:33:14.925Z,1032.18
2023-02-07T01:34:15.797Z,1032.22
2023-02-07T01:35:16.688Z,1032.24
2023-02-07T01:36:17.568Z,1032.27
2023-02-07T01:37:18.459Z,1032.27
2023-02-07T01:38:19.336Z,1032.30
2023-02-07T01:39:20.219Z,1032.30
2023-02-07T01:40:21.126Z,1032.27
2023-02-07T01:41:22.006Z,1032.26
2023-02-07T01:42:22.883Z,1032.25
2023-02-07T01:43:23.771Z,1032.23
2023-02-07T01:44:24.658Z,1032.22
2023-02-07T01:45:25.538Z,1032.19
2023-02-07T01:46:26.514Z,1032.18
2023-02-07T01:47:27.372Z,1032.16
2023-02-07T01:48:28.253Z,1032.13
2023-02-07T01:49:29.142Z,1032.14
2023-02-07T01:50:30.029Z,1032.15
2023-02-07T01:51:30.925Z,1032.13
2023-02-07T01:52:31.799Z,1032.10
2023-02-07T01:53:32.685Z,1032.05
2023-02-07T01:54:33.578Z,1032.00
2023-02-07T01:55:34.462Z,1031.96
2023-02-07T01:56:35.347Z,1031.96
2023-02-07T01:57:36.234Z,1031.96
2023-02-07T01:58:37.118Z,1031.98
2023-02-07T01:59:38.010Z,1032.03
2023-02-07T02:00:38.892Z,1032.01
2023-02-07T02:01:39.874Z,1032.04
2023-02-07T02:02:40.751Z,1032.05
2023-02-07T02:03:41.611Z,1032.04
2023-02-07T02:04:42.488Z,1032.06
2023-02-07T02:05:43.386Z,1032.07
2023-02-07T02:06:44.271Z,1032.14
2023-02-07T02:07:45.155Z,1032.23
2023-02-07T02:08:46.038Z,1032.28
2023-02-07T02:09:46.905Z,1032.34
2023-02-07T02:10:47.805Z,1032.36
2023-02-07T02:11:48.754Z,1032.35
2023-02-07T02:12:49.612Z,1032.34
2023-02-07T02:13:50.498Z,1032.32
2023-02-07T02:14:51.381Z,1032.31
2023-02-07T02:15:52.292Z,1032.28
2023-02-07T02:16:53.184Z,1032.26
2023-02-07T02:17:54.041Z,1032.24
2023-02-07T02:18:54.923Z,1032.24
2023-02-07T02:19:55.816Z,1032.23
2023-02-07T02:20:56.701Z,1032.24
2023-02-07T02:21:57.587Z,1032.29
2023-02-07T02:22:58.486Z,1032.26
2023-02-07T02:23:59.367Z,1032.27
2023-02-07T02:25:00.253Z,1032.27
2023-02-07T02:26:01.147Z,1032.27
2023-02-07T02:27:02.029Z,1032.28
2023-02-07T02:28:02.960Z,1032.26
2023-02-07T02:29:03.789Z,1032.22
2023-02-07T02:30:04.671Z,1032.23
2023-02-07T02:31:05.739Z,1032.23
2023-02-07T02:32:06.104Z,1032.24
2023-02-07T02:33:06.968Z,1032.26
2023-02-07T02:34:07.855Z,1032.33
2023-02-07T02:35:08.738Z,1032.36
2023-02-07T02:36:09.638Z,1032.38
2023-02-07T02:37:10.537Z,1032.42
2023-02-07T02:38:11.415Z,1032.44
2023-02-07T02:39:12.295Z,1032.45
2023-02-07T02:40:13.185Z,1032.45
2023-02-07T02:41:14.068Z,1032.46
2023-02-07T02:42:14.955Z,1032.49
2023-02-07T02:43:15.845Z,1032.54
2023-02-07T02:44:16.722Z,1032.54
2023-02-07T02:45:17.610Z,1032.57
2023-02-07T02:46:18.537Z,1032.56
2023-02-07T02:47:19.409Z,1032.56
2023-02-07T02:48:20.276Z,1032.55
2023-02-07T02:49:21.158Z,1032.55
2023-02-07T02:50:22.049Z,1032.56
2023-02-07T02:51:22.933Z,1032.55
2023-02-07T02:52:23.815Z,1032.56
2023-02-07T02:53:24.705Z,1032.59
2023-02-07T02:54:25.577Z,1032.59
2023-02-07T02:55:26.460Z,1032.61
2023-02-07T02:56:27.366Z,1032.65
2023-02-07T02:57:28.241Z,1032.64
2023-02-07T02:58:29.137Z,1032.65
2023-02-07T02:59:30.009Z,1032.65
2023-02-07T03:00:30.891Z,1032.67
2023-02-07T03:01:31.786Z,1032.65
2023-02-07T03:02:32.692Z,1032.66
2023-02-07T03:03:33.556Z,1032.71
2023-02-07T03:04:34.449Z,1032.73
2023-02-07T03:05:35.507Z,1032.79
2023-02-07T03:06:35.903Z,1032.82
2023-02-07T03:07:36.806Z,1032.84
2023-02-07T03:08:37.690Z,1032.84
2023-02-07T03:09:38.581Z,1032.86
2023-02-07T03:10:39.454Z,1032.92
2023-02-07T03:11:40.355Z,1032.95
2023-02-07T03:12:41.241Z,1032.95
2023-02-07T03:13:42.119Z,1032.99
2023-02-07T03:14:43.005Z,1033.03
2023-02-07T03:15:43.895Z,1033.05
2023-02-07T03:16:44.790Z,1033.06
2023-02-07T03:17:45.690Z,1033.08
2023-02-07T03:18:46.563Z,1033.08
2023-02-07T03:19:47.456Z,1033.11
2023-02-07T03:20:48.324Z,1033.15
2023-02-07T03:21:49.208Z,1033.19
2023-02-07T03:22:50.096Z,1033.20
2023-02-07T03:23:50.980Z,1033.22
2023-02-07T03:24:51.875Z,1033.20
2023-02-07T03:25:52.748Z,1033.22
2023-02-07T03:26:53.640Z,1033.23
2023-02-07T03:27:54.575Z,1033.22
2023-02-07T03:28:55.409Z,1033.24
2023-02-07T03:29:56.296Z,1033.23
2023-02-07T03:30:57.230Z,1033.21
2023-02-07T03:31:58.075Z,1033.23
2023-02-07T03:32:58.977Z,1033.24
2023-02-07T03:33:59.844Z,1033.24
2023-02-07T03:35:00.722Z,1033.21
2023-02-07T03:36:01.602Z,1033.19
2023-02-07T03:37:02.513Z,1033.16
2023-02-07T03:38:03.408Z,1033.15
2023-02-07T03:39:04.308Z,1033.14
2023-02-07T03:40:05.208Z,1033.13
2023-02-07T03:41:06.116Z,1033.12
2023-02-07T03:42:07.028Z,1033.12
2023-02-07T03:43:07.925Z,1033.10
2023-02-07T03:44:08.820Z,1033.11
2023-02-07T03:45:09.700Z,1033.13
2023-02-07T03:46:10.668Z,1033.22
2023-02-07T03:47:11.549Z,1033.26
2023-02-07T03:48:12.459Z,1033.28
2023-02-07T03:49:13.340Z,1033.29
2023-02-07T03:50:14.237Z,1033.31
2023-02-07T03:51:15.131Z,1033.28
2023-02-07T03:52:16.038Z,1033.27
2023-02-07T03:53:16.947Z,1033.28
2023-02-07T03:54:17.845Z,1033.31
2023-02-07T03:55:18.739Z,1033.35
2023-02-07T03:56:19.665Z,1033.36
2023-02-07T03:57:20.544Z,1033.35
2023-02-07T03:58:21.431Z,1033.34
2023-02-07T03:59:22.323Z,1033.36
2023-02-07T04:00:23.202Z,1033.37
2023-02-07T04:01:24.089Z,1033.38
2023-02-07T04:02:25.062Z,1033.36
2023-02-07T04:03:25.930Z,1033.38
2023-02-07T04:04:26.803Z,1033.42
2023-02-07T04:05:27.700Z,1033.45
2023-02-07T04:06:28.599Z,1033.48
2023-02-07T04:07:29.505Z,1033.50
2023-02-07T04:08:30.416Z,1033.46
2023-02-07T04:09:31.315Z,1033.46
2023-02-07T04:10:32.201Z,1033.46
2023-02-07T04:11:33.112Z,1033.47
2023-02-07T04:12:34.023Z,1033.46
2023-02-07T04:13:34.880Z,1033.44
2023-02-07T04:14:35.767Z,1033.43
2023-02-07T04:15:36.933Z,1033.41
2023-02-07T04:16:37.518Z,1033.42
2023-02-07T04:17:38.378Z,1033.42
2023-02-07T04:18:39.279Z,1033.41
2023-02-07T04:19:40.146Z,1033.41
2023-02-07T04:20:41.024Z,1033.40
2023-02-07T04:21:41.912Z,1033.37
2023-02-07T04:22:42.807Z,1033.34
2023-02-07T04:23:43.690Z,1033.29
2023-02-07T04:24:44.561Z,1033.30
2023-02-07T04:25:45.453Z,1033.32
2023-02-07T04:26:46.327Z,1033.33
2023-02-07T04:27:47.276Z,1033.31
2023-02-07T04:28:48.143Z,1033.32
2023-02-07T04:29:49.031Z,1033.35
2023-02-07T04:30:49.936Z,1033.36
2023-02-07T04:31:50.833Z,1033.35
2023-02-07T04:32:51.697Z,1033.36
2023-02-07T04:33:52.604Z,1033.31
2023-02-07T04:34:53.476Z,1033.29
2023-02-07T04:35:54.342Z,1033.32
2023-02-07T04:36:55.226Z,1033.29
2023-02-07T04:37:56.122Z,1033.24
2023-02-07T04:38:57.010Z,1033.19
2023-02-07T04:39:57.886Z,1033.13
2023-02-07T04:40:58.781Z,1033.13
2023-02-07T04:41:59.667Z,1033.18
2023-02-07T04:43:00.562Z,1033.18
2023-02-07T04:44:01.438Z,1033.14
2023-02-07T04:45:02.331Z,1033.09
2023-02-07T04:46:03.265Z,1033.05
2023-02-07T04:47:04.104Z,1033.11
2023-02-07T04:48:05.045Z,1033.08
2023-02-07T04:49:05.906Z,1033.11
2023-02-07T04:50:06.811Z,1033.19
2023-02-07T04:51:07.702Z,1033.14
2023-02-07T04:52:08.758Z,1033.14
2023-02-07T04:53:09.076Z,1033.18
2023-02-07T04:54:09.959Z,1033.24
2023-02-07T04:55:10.996Z,1033.24
2023-02-07T04:56:11.878Z,1033.29
2023-02-07T04:57:12.738Z,1033.25
2023-02-07T04:58:13.617Z,1033.18
2023-02-07T04:59:14.489Z,1033.14
2023-02-07T05:00:15.379Z,1033.09
2023-02-07T05:01:16.391Z,1033.08
2023-02-07T05:02:17.210Z,1033.06
2023-02-07T05:03:18.114Z,1032.96
2023-02-07T05:04:19.058Z,1032.94
2023-02-07T05:05:19.920Z,1032.92
2023-02-07T05:06:20.798Z,1032.86
2023-02-07T05:07:21.680Z,1032.88
2023-02-07T05:08:22.959Z,1032.88
2023-02-07T05:09:23.253Z,1033.02
2023-02-07T05:10:24.143Z,1032.98
2023-02-07T05:11:25.022Z,1033.02
2023-02-07T05:12:25.916Z,1033.06
2023-02-07T05:13:26.823Z,1033.07
2023-02-07T05:14:27.725Z,1033.15
2023-02-07T05:15:28.615Z,1033.22
2023-02-07T05:16:29.536Z,1033.23
2023-02-07T05:17:30.384Z,1033.22
2023-02-07T05:18:31.289Z,1033.25
2023-02-07T05:19:32.196Z,1033.27
2023-02-07T05:20:33.077Z,1033.28
2023-02-07T05:21:33.940Z,1033.28
2023-02-07T05:22:34.826Z,1033.28
2023-02-07T05:23:35.720Z,1033.22
2023-02-07T05:24:36.606Z,1033.17
2023-02-07T05:25:38.453Z,1033.17
2023-02-07T05:26:40.358Z,1033.17
2023-02-07T05:27:39.300Z,1033.20
2023-02-07T05:28:40.197Z,1033.21
2023-02-07T05:29:41.080Z,1033.24
2023-02-07T05:30:42.049Z,1033.30
2023-02-07T05:31:43.065Z,1033.31
2023-02-07T05:32:43.453Z,1033.32
2023-02-07T05:33:44.354Z,1033.33
2023-02-07T05:34:45.259Z,1033.34
2023-02-07T05:35:46.108Z,1033.35
2023-02-07T05:36:46.998Z,1033.34
2023-02-07T05:37:47.877Z,1033.35
2023-02-07T05:38:48.782Z,1033.31
2023-02-07T05:39:49.668Z,1033.26
2023-02-07T05:40:50.558Z,1033.23
2023-02-07T05:41:51.437Z,1033.25
2023-02-07T05:42:52.337Z,1033.24
2023-02-07T05:43:53.237Z,1033.23
2023-02-07T05:44:54.126Z,1033.26
2023-02-07T05:45:55.034Z,1033.22
2023-02-07T05:46:55.958Z,1033.19
2023-02-07T05:47:56.835Z,1033.14
2023-02-07T05:48:57.795Z,1033.16
2023-02-07T05:49:58.705Z,1033.13
2023-02-07T05:50:59.562Z,1033.11
2023-02-07T05:52:00.446Z,1033.11
2023-02-07T05:53:01.330Z,1033.04
2023-02-07T05:54:02.223Z,1033.04
2023-02-07T05:55:03.128Z,1033.04
2023-02-07T05:56:04.009Z,1033.07
2023-02-07T05:57:04.885Z,1033.12
2023-02-07T05:58:05.778Z,1033.14
2023-02-07T05:59:06.667Z,1033.15
2023-02-07T06:00:07.552Z,1033.21
2023-02-07T06:01:08.435Z,1033.29
2023-02-07T06:02:09.393Z,1033.34
2023-02-07T06:03:10.273Z,1033.39
2023-02-07T06:04:11.136Z,1033.40
2023-02-07T06:05:11.976Z,1033.45
2023-02-07T06:06:12.826Z,1033.47
2023-02-07T06:07:13.707Z,1033.48
2023-02-07T06:08:14.556Z,1033.55
2023-02-07T06:09:15.440Z,1033.56
2023-02-07T06:10:16.326Z,1033.57
2023-02-07T06:11:17.217Z,1033.59
2023-02-07T06:12:18.042Z,1033.66
2023-02-07T06:13:18.926Z,1033.67
2023-02-07T06:14:19.774Z,1033.64
2023-02-07T06:15:20.608Z,1033.63
2023-02-07T06:16:21.447Z,1033.64
2023-02-07T06:17:22.278Z,1033.62
2023-02-07T06:18:23.104Z,1033.63
2023-02-07T06:19:23.939Z,1033.64
2023-02-07T06:20:24.787Z,1033.64
2023-02-07T06:21:34.709Z,1033.59
2023-02-07T06:22:27.316Z,1033.53
2023-02-07T06:23:27.153Z,1033.49
2023-02-07T06:24:27.980Z,1033.48
2023-02-07T06:25:28.825Z,1033.45
2023-02-07T06:26:29.646Z,1033.47
2023-02-07T06:27:30.472Z,1033.51
2023-02-07T06:28:31.304Z,1033.53
2023-02-07T06:29:32.146Z,1033.57
2023-02-07T06:30:33.028Z,1033.57
2023-02-07T06:31:33.922Z,1033.59
2023-02-07T06:32:34.717Z,1033.58
2023-02-07T06:33:35.614Z,1033.55
2023-02-07T06:34:36.472Z,1033.57
2023-02-07T06:35:37.692Z,1033.51
2023-02-07T06:36:38.193Z,1033.51
2023-02-07T06:37:39.014Z,1033.50
2023-02-07T06:38:39.863Z,1033.53
2023-02-07T06:39:40.710Z,1033.52
2023-02-07T06:40:41.536Z,1033.54
2023-02-07T06:41:42.379Z,1033.57
2023-02-07T06:42:43.193Z,1033.62
2023-02-07T06:43:44.026Z,1033.57
2023-02-07T06:44:44.867Z,1033.55
2023-02-07T06:45:45.698Z,1033.59
2023-02-07T06:46:46.529Z,1033.65
2023-02-07T06:47:47.359Z,1033.67
2023-02-07T06:48:48.191Z,1033.67
2023-02-07T06:49:49.033Z,1033.65
2023-02-07T06:50:49.880Z,1033.62
2023-02-07T06:51:50.693Z,1033.66
2023-02-07T06:52:51.525Z,1033.64
2023-02-07T06:53:52.352Z,1033.63
2023-02-07T06:54:53.195Z,1033.63
2023-02-07T06:55:54.022Z,1033.61
2023-02-07T06:56:54.855Z,1033.60
2023-02-07T06:57:55.697Z,1033.62
2023-02-07T06:58:56.517Z,1033.62
2023-02-07T06:59:57.356Z,1033.62
2023-02-07T07:00:58.194Z,1033.66
2023-02-07T07:01:59.034Z,1033.67
2023-02-07T07:02:59.879Z,1033.67
2023-02-07T07:04:00.679Z,1033.67
2023-02-07T07:05:01.539Z,1033.68
2023-02-07T07:06:02.374Z,1033.71
2023-02-07T07:07:03.184Z,1033.74
2023-02-07T07:08:03.992Z,1033.74
2023-02-07T07:09:04.841Z,1033.74
2023-02-07T07:10:05.727Z,1033.76
2023-02-07T07:11:06.515Z,1033.71
2023-02-07T07:12:07.344Z,1033.68
2023-02-07T07:13:08.166Z,1033.67
2023-02-07T07:14:08.999Z,1033.67
2023-02-07T07:15:09.847Z,1033.70
2023-02-07T07:16:10.790Z,1033.73
2023-02-07T07:17:11.583Z,1033.72
2023-02-07T07:18:12.406Z,1033.76
2023-02-07T07:19:13.227Z,1033.76
2023-02-07T07:20:14.175Z,1033.75
2023-02-07T07:21:15.020Z,1033.78
2023-02-07T07:22:15.831Z,1033.76
2023-02-07T07:23:16.660Z,1033.75
2023-02-07T07:24:17.489Z,1033.80
2023-02-07T07:25:18.329Z,1033.84
2023-02-07T07:26:19.153Z,1033.82
2023-02-07T07:27:19.983Z,1033.83
2023-02-07T07:28:20.930Z,1033.80
2023-02-07T07:29:21.717Z,1033.81
2023-02-07T07:30:22.562Z,1033.84
2023-02-07T07:31:23.412Z,1033.89
2023-02-07T07:32:33.620Z,1033.87
2023-02-07T07:33:25.928Z,1033.79
2023-02-07T07:34:25.755Z,1033.88
2023-02-07T07:35:26.585Z,1033.81
2023-02-07T07:36:27.439Z,1033.84
2023-02-07T07:37:28.239Z,1033.84
2023-02-07T07:38:29.072Z,1033.83
2023-02-07T07:39:29.900Z,1033.82
2023-02-07T07:40:30.736Z,1033.81
2023-02-07T07:41:31.558Z,1033.78
2023-02-07T07:42:32.387Z,1033.80
2023-02-07T07:43:33.208Z,1033.79
2023-02-07T07:44:34.041Z,1033.75
2023-02-07T07:45:34.895Z,1033.76
2023-02-07T07:46:35.777Z,1033.76
2023-02-07T07:47:36.562Z,1033.77
2023-02-07T07:48:37.425Z,1033.76
2023-02-07T07:49:38.218Z,1033.72
2023-02-07T07:50:39.299Z,1033.70
2023-02-07T07:51:39.712Z,1033.71
2023-02-07T07:52:40.530Z,1033.70
2023-02-07T07:53:41.346Z,1033.68
2023-02-07T07:54:42.182Z,1033.65
2023-02-07T07:55:43.020Z,1033.64
2023-02-07T07:56:43.846Z,1033.62
2023-02-07T07:57:44.684Z,1033.62
2023-02-07T07:58:45.510Z,1033.65
2023-02-07T07:59:46.345Z,1033.61
2023-02-07T08:00:47.234Z,1033.62
2023-02-07T08:01:48.044Z,1033.64
2023-02-07T08:02:48.872Z,1033.59
2023-02-07T08:03:49.735Z,1033.63
2023-02-07T08:04:50.522Z,1033.62
2023-02-07T08:05:51.369Z,1033.61
2023-02-07T08:06:52.213Z,1033.65
2023-02-07T08:07:53.027Z,1033.68
2023-02-07T08:08:53.857Z,1033.65
2023-02-07T08:09:54.696Z,1033.62
2023-02-07T08:10:55.567Z,1033.60
2023-02-07T08:11:56.364Z,1033.54
2023-02-07T08:12:57.247Z,1033.50
2023-02-07T08:13:58.058Z,1033.51
2023-02-07T08:14:58.884Z,1033.52
2023-02-07T08:15:59.788Z,1033.51
2023-02-07T08:17:00.616Z,1033.50
2023-02-07T08:18:01.453Z,1033.50
2023-02-07T08:19:02.417Z,1033.51
2023-02-07T08:20:03.179Z,1033.47
2023-02-07T08:21:04.207Z,1033.44
2023-02-07T08:22:04.990Z,1033.40
2023-02-07T08:23:05.911Z,1033.39
2023-02-07T08:24:06.745Z,1033.38
2023-02-07T08:25:07.561Z,1033.36
2023-02-07T08:26:08.401Z,1033.36
2023-02-07T08:27:09.244Z,1033.34
2023-02-07T08:28:10.100Z,1033.31
2023-02-07T08:29:10.896Z,1033.29
2023-02-07T08:30:11.723Z,1033.29
2023-02-07T08:31:12.674Z,1033.33
2023-02-07T08:32:13.473Z,1033.28
2023-02-07T08:33:14.304Z,1033.30
2023-02-07T08:34:15.138Z,1033.31
2023-02-07T08:35:15.984Z,1033.30
2023-02-07T08:36:16.844Z,1033.31
2023-02-07T08:37:17.685Z,1033.30
2023-02-07T08:38:18.498Z,1033.29
2023-02-07T08:39:19.321Z,1033.32
2023-02-07T08:40:20.154Z,1033.35
2023-02-07T08:41:20.991Z,1033.30
2023-02-07T08:42:21.822Z,1033.33
2023-02-07T08:43:22.657Z,1033.37
2023-02-07T08:44:23.493Z,1033.34
2023-02-07T08:45:24.421Z,1033.29
2023-02-07T08:46:25.393Z,1033.24
2023-02-07T08:47:26.187Z,1033.15
2023-02-07T08:48:27.007Z,1033.14
2023-02-07T08:49:27.855Z,1033.08
2023-02-07T08:50:28.716Z,1032.99
2023-02-07T08:51:29.558Z,1032.97
2023-02-07T08:52:30.397Z,1032.93
2023-02-07T08:53:31.209Z,1032.89
2023-02-07T08:54:32.038Z,1032.91
2023-02-07T08:55:32.865Z,1032.89
2023-02-07T08:56:33.701Z,1032.88
2023-02-07T08:57:34.520Z,1032.88
2023-02-07T08:58:35.351Z,1032.90
2023-02-07T08:59:36.184Z,1032.91
2023-02-07T09:00:37.504Z,1032.83
2023-02-07T09:01:37.693Z,1032.81
2023-02-07T09:02:38.642Z,1032.81
2023-02-07T09:03:39.445Z,1032.88
2023-02-07T09:04:40.275Z,1032.91
2023-02-07T09:05:41.112Z,1032.92
2023-02-07T09:06:41.958Z,1032.91
2023-02-07T09:07:42.801Z,1032.92
2023-02-07T09:08:43.634Z,1032.94
2023-02-07T09:09:44.447Z,1032.94
2023-02-07T09:10:47.474Z,1032.97
2023-02-07T09:11:45.981Z,1032.96
2023-02-07T09:12:46.758Z,1032.99
2023-02-07T09:13:47.585Z,1033.01
2023-02-07T09:14:48.417Z,1032.98
2023-02-07T09:15:49.262Z,1032.96
2023-02-07T09:16:50.172Z,1032.94
2023-02-07T09:17:50.968Z,1032.94
2023-02-07T09:18:51.793Z,1032.94
2023-02-07T09:19:52.723Z,1032.91
2023-02-07T09:20:53.493Z,1032.90
2023-02-07T09:21:54.320Z,1032.91
2023-02-07T09:22:55.171Z,1032.90
2023-02-07T09:23:55.972Z,1032.85
2023-02-07T09:24:56.801Z,1032.88
2023-02-07T09:25:57.625Z,1032.86
2023-02-07T09:26:58.468Z,1032.86
2023-02-07T09:27:59.308Z,1032.82
2023-02-07T09:29:00.119Z,1032.84
2023-02-07T09:30:00.940Z,1032.79
2023-02-07T09:31:04.522Z,1032.77
2023-02-07T09:32:02.613Z,1032.71
2023-02-07T09:33:03.428Z,1032.71
2023-02-07T09:34:04.251Z,1032.73
2023-02-07T09:35:05.079Z,1032.73
2023-02-07T09:36:05.918Z,1032.70
2023-02-07T09:37:06.769Z,1032.71
2023-02-07T09:38:07.625Z,1032.73
2023-02-07T09:39:08.411Z,1032.72
2023-02-07T09:40:09.239Z,1032.76
2023-02-07T09:41:10.069Z,1032.75
2023-02-07T09:42:10.899Z,1032.75
2023-02-07T09:43:11.912Z,1032.74
2023-02-07T09:44:12.468Z,1032.75
2023-02-07T09:45:13.048Z,1032.74
2023-02-07T09:46:13.542Z,1032.75
2023-02-07T09:47:14.348Z,1032.74
2023-02-07T09:48:15.181Z,1032.73
2023-02-07T09:49:16.012Z,1032.76
2023-02-07T09:50:16.833Z,1032.78
2023-02-07T09:51:17.741Z,1032.77
2023-02-07T09:52:18.615Z,1032.76
2023-02-07T09:53:19.429Z,1032.76
2023-02-07T09:54:20.236Z,1032.80
2023-02-07T09:55:21.060Z,1032.81
2023-02-07T09:56:21.881Z,1032.78
2023-02-07T09:57:22.738Z,1032.81
2023-02-07T09:58:23.701Z,1032.82
2023-02-07T09:59:24.629Z,1032.84
2023-02-07T10:00:25.506Z,1032.87
2023-02-07T10:01:26.302Z,1032.86
2023-02-07T10:02:27.160Z,1032.83
2023-02-07T10:03:27.953Z,1032.84
2023-02-07T10:04:28.785Z,1032.82
2023-02-07T10:05:29.614Z,1032.83
2023-02-07T10:06:30.435Z,1032.81
2023-02-07T10:07:31.274Z,1032.84
2023-02-07T10:08:40.697Z,1032.85
2023-02-07T10:09:33.846Z,1032.83
2023-02-07T10:10:33.676Z,1032.83
2023-02-07T10:11:34.588Z,1032.86
2023-02-07T10:12:35.386Z,1032.84
2023-02-07T10:13:36.215Z,1032.82
2023-02-07T10:14:37.033Z,1032.80
2023-02-07T10:15:37.875Z,1032.77
2023-02-07T10:16:38.683Z,1032.77
2023-02-07T10:17:39.522Z,1032.76
2023-02-07T10:18:40.344Z,1032.76
2023-02-07T10:19:41.182Z,1032.73
2023-02-07T10:20:42.104Z,1032.73
2023-02-07T10:21:42.909Z,1032.70
2023-02-07T10:22:43.742Z,1032.68
2023-02-07T10:23:44.588Z,1032.64
2023-02-07T10:24:45.425Z,1032.59
2023-02-07T10:25:46.217Z,1032.59
2023-02-07T10:26:47.048Z,1032.58
2023-02-07T10:27:47.942Z,1032.58
2023-02-07T10:28:48.744Z,1032.60
2023-02-07T10:29:49.565Z,1032.59
2023-02-07T10:30:50.539Z,1032.60
2023-02-07T10:31:51.419Z,1032.59
2023-02-07T10:32:52.225Z,1032.61
2023-02-07T10:33:53.066Z,1032.61
2023-02-07T10:34:53.890Z,1032.62
2023-02-07T10:35:54.718Z,1032.63
2023-02-07T10:36:55.541Z,1032.62
2023-02-07T10:37:56.413Z,1032.62
2023-02-07T10:39:08.296Z,1032.59
2023-02-07T10:39:58.939Z,1032.61
2023-02-07T10:40:58.769Z,1032.61
2023-02-07T10:41:59.599Z,1032.62
2023-02-07T10:43:00.507Z,1032.66
2023-02-07T10:44:01.303Z,1032.64
2023-02-07T10:45:02.143Z,1032.62
2023-02-07T10:46:06.412Z,1032.59
2023-02-07T10:47:03.958Z,1032.58
2023-02-07T10:48:04.779Z,1032.58
2023-02-07T10:49:05.600Z,1032.53
2023-02-07T10:50:06.434Z,1032.56
2023-02-07T10:51:07.260Z,1032.56
2023-02-07T10:52:08.093Z,1032.58
2023-02-07T10:53:08.928Z,1032.61
2023-02-07T10:54:09.792Z,1032.64
2023-02-07T10:55:10.611Z,1032.66
2023-02-07T10:56:11.587Z,1032.68
2023-02-07T10:57:12.364Z,1032.66
2023-02-07T10:58:22.477Z,1032.67
2023-02-07T10:59:14.931Z,1032.65
2023-02-07T11:00:14.763Z,1032.62
2023-02-07T11:01:15.616Z,1032.61
2023-02-07T11:02:16.448Z,1032.63
2023-02-07T11:03:17.290Z,1032.64
2023-02-07T11:04:18.131Z,1032.63
2023-02-07T11:05:18.959Z,1032.64
2023-02-07T11:06:19.790Z,1032.64
2023-02-07T11:07:20.619Z,1032.64
2023-02-07T11:08:21.459Z,1032.63
2023-02-07T11:09:22.315Z,1032.64
2023-02-07T11:10:23.116Z,1032.65
2023-02-07T11:11:23.939Z,1032.65
2023-02-07T11:12:24.766Z,1032.68
2023-02-07T11:13:27.271Z,1032.72
2023-02-07T11:14:26.198Z,1032.79
2023-02-07T11:15:27.027Z,1032.80
2023-02-07T11:16:27.910Z,1032.74
2023-02-07T11:17:28.735Z,1032.74
2023-02-07T11:18:29.546Z,1032.76
2023-02-07T11:19:30.385Z,1032.72
2023-02-07T11:20:31.206Z,1032.73
2023-02-07T11:21:32.038Z,1032.70
2023-02-07T11:22:32.862Z,1032.73
2023-02-07T11:23:33.853Z,1032.68
2023-02-07T11:24:34.200Z,1032.71
2023-02-07T11:25:35.007Z,1032.66
2023-02-07T11:26:35.849Z,1032.66
2023-02-07T11:27:36.658Z,1032.64
2023-02-07T11:28:37.516Z,1032.61
2023-02-07T11:29:38.354Z,1032.59
2023-02-07T11:30:39.222Z,1032.53
2023-02-07T11:31:40.002Z,1032.51
2023-02-07T11:32:40.829Z,1032.48
2023-02-07T11:33:41.661Z,1032.47
2023-02-07T11:34:42.494Z,1032.47
2023-02-07T11:35:43.355Z,1032.47
2023-02-07T11:36:44.146Z,1032.49
2023-02-07T11:37:45.006Z,1032.49
2023-02-07T11:38:45.815Z,1032.51
2023-02-07T11:39:46.672Z,1032.51
2023-02-07T11:40:47.466Z,1032.48
2023-02-07T11:41:48.295Z,1032.48
2023-02-07T11:42:49.123Z,1032.48
2023-02-07T11:43:49.962Z,1032.49
2023-02-07T11:44:50.787Z,1032.50
2023-02-07T11:45:51.608Z,1032.52
2023-02-07T11:46:52.464Z,1032.53
2023-02-07T11:47:53.257Z,1032.56
2023-02-07T11:48:54.094Z,1032.54
2023-02-07T11:49:54.925Z,1032.53
2023-02-07T11:50:55.772Z,1032.55
2023-02-07T11:51:56.603Z,1032.56
2023-02-07T11:52:57.445Z,1032.57
2023-02-07T11:53:58.282Z,1032.58
2023-02-07T11:54:59.140Z,1032.55
2023-02-07T11:55:59.939Z,1032.52
2023-02-07T11:57:00.766Z,1032.50
2023-02-07T11:58:01.585Z,1032.50
2023-02-07T11:59:02.430Z,1032.47
2023-02-07T12:00:03.292Z,1032.42
2023-02-07T12:01:04.085Z,1032.38
2023-02-07T12:02:04.927Z,1032.36
2023-02-07T12:03:05.747Z,1032.38
2023-02-07T12:04:06.585Z,1032.36
2023-02-07T12:05:07.509Z,1032.36
2023-02-07T12:06:08.296Z,1032.34
2023-02-07T12:07:09.124Z,1032.32
2023-02-07T12:08:09.966Z,1032.29
2023-02-07T12:09:10.830Z,1032.26
2023-02-07T12:10:11.675Z,1032.23
2023-02-07T12:11:12.489Z,1032.20
2023-02-07T12:12:13.401Z,1032.17
2023-02-07T12:13:14.168Z,1032.15
2023-02-07T12:14:14.998Z,1032.16
2023-02-07T12:15:15.828Z,1032.14
2023-02-07T12:16:16.697Z,1032.13